createdAt,value
2022-08-18T00:00:02.340Z,57.93
2022-08-18T00:01:02.320Z,57.64
2022-08-18T00:02:02.366Z,58.36
2022-08-18T00:03:27.186Z,58.43
2022-08-18T00:04:12.484Z,57.64
2022-08-18T00:05:03.275Z,57.93
2022-08-18T00:06:02.269Z,57.67
2022-08-18T00:07:02.253Z,57.64
2022-08-18T00:08:02.245Z,58.53
2022-08-18T00:09:02.242Z,58.53
2022-08-18T00:10:02.223Z,58.43
2022-08-18T00:11:02.207Z,57.84
2022-08-18T00:12:02.228Z,58.43
2022-08-18T00:13:02.191Z,58.53
2022-08-18T00:14:02.191Z,58.43
2022-08-18T00:15:02.165Z,58.33
2022-08-18T00:16:02.155Z,58.33
2022-08-18T00:17:02.145Z,58.83
2022-08-18T00:18:02.130Z,58.53
2022-08-18T00:19:04.678Z,58.56
2022-08-18T00:20:03.112Z,58.06
2022-08-18T00:21:02.096Z,58.46
2022-08-18T00:22:02.088Z,58.56
2022-08-18T00:23:02.073Z,58.46
2022-08-18T00:24:02.071Z,58.46
2022-08-18T00:25:02.052Z,59.25
2022-08-18T00:26:02.042Z,57.64
2022-08-18T00:27:02.043Z,58.53
2022-08-18T00:28:02.026Z,58.03
2022-08-18T00:29:02.028Z,58.33
2022-08-18T00:30:02.014Z,58.53
2022-08-18T00:31:01.985Z,58.03
2022-08-18T00:32:01.991Z,58.23
2022-08-18T00:33:01.967Z,57.44
2022-08-18T00:34:01.968Z,57.64
2022-08-18T00:35:01.951Z,57.54
2022-08-18T00:36:01.932Z,57.57
2022-08-18T00:37:01.921Z,58.03
2022-08-18T00:38:01.910Z,57.54
2022-08-18T00:39:01.911Z,57.54
2022-08-18T00:40:01.967Z,57.57
2022-08-18T00:41:01.877Z,58.75
2022-08-18T00:42:01.866Z,58.46
2022-08-18T00:43:01.857Z,58.65
2022-08-18T00:44:01.864Z,58.65
2022-08-18T00:45:01.865Z,59.05
2022-08-18T00:46:02.388Z,59.25
2022-08-18T00:47:01.813Z,59.38
2022-08-18T00:48:01.805Z,59.18
2022-08-18T00:49:01.798Z,59.18
2022-08-18T00:50:01.795Z,58.88
2022-08-18T00:51:01.771Z,58.88
2022-08-18T00:52:01.758Z,58.98
2022-08-18T00:53:01.758Z,59.38
2022-08-18T00:54:01.754Z,59.28
2022-08-18T00:55:01.724Z,59.28
2022-08-18T00:56:01.717Z,59.18
2022-08-18T00:57:01.702Z,59.18
2022-08-18T00:58:01.696Z,59.08
2022-08-18T00:59:01.711Z,59.01
2022-08-18T01:00:01.670Z,59.21
2022-08-18T01:01:01.733Z,58.98
2022-08-18T01:02:01.663Z,59.67
2022-08-18T01:03:01.643Z,59.70
2022-08-18T01:04:01.637Z,59.21
2022-08-18T01:05:01.615Z,59.11
2022-08-18T01:06:01.614Z,60.20
2022-08-18T01:07:01.607Z,59.41
2022-08-18T01:08:01.586Z,59.31
2022-08-18T01:09:01.579Z,60.10
2022-08-18T01:10:01.565Z,59.80
2022-08-18T01:11:01.557Z,59.63
2022-08-18T01:12:01.542Z,59.74
2022-08-18T01:13:02.523Z,60.43
2022-08-18T01:14:01.527Z,60.23
2022-08-18T01:15:01.503Z,60.83
2022-08-18T01:16:01.495Z,60.13
2022-08-18T01:17:01.481Z,60.43
2022-08-18T01:18:01.476Z,60.43
2022-08-18T01:19:01.473Z,60.83
2022-08-18T01:20:01.449Z,60.83
2022-08-18T01:21:01.439Z,61.15
2022-08-18T01:22:01.437Z,60.85
2022-08-18T01:23:01.421Z,61.75
2022-08-18T01:24:01.417Z,62.02
2022-08-18T01:25:01.396Z,61.12
2022-08-18T01:26:01.388Z,60.85
2022-08-18T01:27:01.373Z,61.55
2022-08-18T01:28:01.367Z,61.72
2022-08-18T01:29:01.381Z,61.45
2022-08-18T01:30:01.351Z,61.25
2022-08-18T01:31:01.330Z,60.96
2022-08-18T01:32:01.319Z,61.25
2022-08-18T01:33:01.314Z,61.05
2022-08-18T01:34:01.338Z,61.05
2022-08-18T01:35:01.286Z,61.35
2022-08-18T01:36:01.276Z,61.25
2022-08-18T01:37:01.270Z,61.65
2022-08-18T01:38:01.260Z,61.75
2022-08-18T01:39:01.253Z,61.45
2022-08-18T01:41:24.960Z,61.94
2022-08-18T01:41:28.935Z,61.88
2022-08-18T01:42:02.281Z,61.68
2022-08-18T01:43:01.197Z,61.98
2022-08-18T01:44:01.199Z,61.85
2022-08-18T01:45:01.179Z,61.85
2022-08-18T01:46:01.168Z,61.15
2022-08-18T01:47:01.156Z,62.15
2022-08-18T01:48:01.512Z,61.58
2022-08-18T01:49:01.154Z,61.05
2022-08-18T01:50:01.126Z,61.18
2022-08-18T01:51:01.111Z,62.18
2022-08-18T01:52:01.099Z,62.07
2022-08-18T01:53:01.093Z,62.57
2022-08-18T01:54:01.107Z,62.57
2022-08-18T01:55:01.067Z,62.37
2022-08-18T01:56:01.057Z,62.57
2022-08-18T01:57:01.047Z,62.57
2022-08-18T01:58:01.035Z,62.47
2022-08-18T01:59:01.035Z,62.77
2022-08-18T02:00:01.016Z,62.57
2022-08-18T02:01:01.006Z,62.67
2022-08-18T02:02:01.047Z,62.47
2022-08-18T02:03:02.668Z,62.70
2022-08-18T02:04:31.200Z,62.70
2022-08-18T02:05:01.957Z,62.50
2022-08-18T02:06:00.951Z,62.27
2022-08-18T02:07:00.938Z,62.40
2022-08-18T02:08:00.924Z,62.40
2022-08-18T02:09:00.936Z,62.30
2022-08-18T02:10:00.902Z,62.30
2022-08-18T02:11:00.903Z,62.21
2022-08-18T02:12:00.883Z,61.91
2022-08-18T02:13:00.878Z,62.60
2022-08-18T02:14:00.875Z,62.60
2022-08-18T02:15:00.852Z,62.80
2022-08-18T02:16:00.847Z,63.23
2022-08-18T02:17:02.170Z,63.23
2022-08-18T02:18:00.815Z,63.43
2022-08-18T02:19:00.815Z,63.03
2022-08-18T02:20:00.799Z,63.43
2022-08-18T02:21:00.787Z,63.82
2022-08-18T02:22:00.779Z,63.43
2022-08-18T02:23:00.762Z,63.85
2022-08-18T02:24:00.769Z,63.76
2022-08-18T02:25:00.748Z,63.85
2022-08-18T02:26:00.735Z,63.56
2022-08-18T02:27:00.731Z,63.66
2022-08-18T02:28:00.707Z,63.95
2022-08-18T02:29:00.711Z,63.76
2022-08-18T02:30:00.688Z,64.36
2022-08-18T02:31:00.684Z,64.39
2022-08-18T02:32:00.676Z,64.45
2022-08-18T02:33:00.658Z,64.25
2022-08-18T02:34:00.659Z,64.36
2022-08-18T02:35:00.636Z,64.36
2022-08-18T02:36:00.625Z,64.39
2022-08-18T02:37:00.621Z,64.45
2022-08-18T02:38:00.609Z,64.18
2022-08-18T02:39:00.606Z,64.48
2022-08-18T02:40:00.608Z,64.39
2022-08-18T02:41:00.572Z,64.09
2022-08-18T02:42:00.563Z,64.48
2022-08-18T02:43:00.555Z,64.45
2022-08-18T02:44:00.558Z,64.39
2022-08-18T02:45:00.540Z,64.36
2022-08-18T02:46:00.516Z,64.58
2022-08-18T02:47:00.510Z,64.78
2022-08-18T02:48:00.499Z,64.81
2022-08-18T02:49:00.503Z,64.69
2022-08-18T02:50:00.473Z,64.61
2022-08-18T02:51:00.466Z,65.21
2022-08-18T02:52:00.452Z,64.91
2022-08-18T02:53:00.440Z,65.41
2022-08-18T02:54:00.445Z,64.81
2022-08-18T02:55:00.420Z,65.31
2022-08-18T02:56:00.411Z,65.41
2022-08-18T02:57:00.399Z,64.58
2022-08-18T02:58:00.386Z,64.48
2022-08-18T02:59:00.402Z,64.48
2022-08-18T03:00:00.362Z,64.39
2022-08-18T03:01:00.426Z,64.61
2022-08-18T03:02:00.340Z,64.28
2022-08-18T03:03:00.335Z,64.48
2022-08-18T03:04:00.335Z,64.78
2022-08-18T03:05:00.314Z,64.69
2022-08-18T03:06:00.299Z,64.48
2022-08-18T03:07:00.297Z,64.48
2022-08-18T03:08:14.977Z,63.89
2022-08-18T03:09:00.278Z,63.66
2022-08-18T03:10:31.805Z,63.66
2022-08-18T03:11:01.248Z,63.85
2022-08-18T03:12:00.240Z,63.66
2022-08-18T03:13:00.221Z,63.79
2022-08-18T03:14:00.232Z,63.66
2022-08-18T03:15:00.207Z,63.66
2022-08-18T03:16:00.188Z,63.66
2022-08-18T03:17:00.182Z,63.76
2022-08-18T03:18:00.171Z,63.66
2022-08-18T03:19:00.167Z,63.66
2022-08-18T03:20:00.887Z,63.95
2022-08-18T03:21:00.138Z,63.36
2022-08-18T03:22:03.023Z,63.43
2022-08-18T03:23:09.577Z,63.33
2022-08-18T03:24:02.814Z,63.53
2022-08-18T03:25:00.090Z,63.43
2022-08-18T03:26:00.085Z,63.53
2022-08-18T03:27:00.083Z,63.33
2022-08-18T03:28:00.067Z,63.33
2022-08-18T03:29:00.177Z,63.13
2022-08-18T03:30:00.038Z,63.23
2022-08-18T03:31:00.026Z,63.33
2022-08-18T03:32:00.015Z,63.23
2022-08-18T03:33:00.004Z,63.13
2022-08-18T03:34:00.011Z,63.13
2022-08-18T03:34:59.982Z,63.23
2022-08-18T03:35:59.970Z,63.20
2022-08-18T03:36:59.960Z,63.23
2022-08-18T03:37:59.995Z,62.70
2022-08-18T03:38:59.947Z,62.70
2022-08-18T03:40:00.037Z,63.00
2022-08-18T03:40:59.926Z,63.23
2022-08-18T03:42:01.727Z,62.50
2022-08-18T03:43:02.106Z,62.50
2022-08-18T03:43:59.896Z,62.50
2022-08-18T03:44:59.872Z,62.50
2022-08-18T03:45:59.863Z,62.60
2022-08-18T03:46:59.849Z,62.60
2022-08-18T03:47:59.843Z,62.40
2022-08-18T03:48:59.842Z,62.60
2022-08-18T03:49:59.821Z,62.50
2022-08-18T03:51:03.712Z,62.50
2022-08-18T03:52:01.193Z,62.70
2022-08-18T03:52:59.802Z,62.80
2022-08-18T03:53:59.784Z,62.10
2022-08-18T03:54:59.846Z,62.80
2022-08-18T03:55:59.752Z,62.60
2022-08-18T03:56:59.743Z,62.60
2022-08-18T03:57:59.736Z,62.57
2022-08-18T03:58:59.719Z,63.40
2022-08-18T03:59:59.726Z,62.80
2022-08-18T04:00:59.744Z,62.80
2022-08-18T04:01:59.825Z,63.20
2022-08-18T04:02:59.680Z,63.00
2022-08-18T04:03:59.677Z,62.60
2022-08-18T04:04:59.653Z,62.90
2022-08-18T04:05:59.643Z,63.13
2022-08-18T04:06:59.635Z,63.00
2022-08-18T04:07:59.618Z,63.10
2022-08-18T04:08:59.621Z,63.33
2022-08-18T04:09:59.604Z,63.33
2022-08-18T04:10:59.591Z,63.00
2022-08-18T04:11:59.576Z,63.40
2022-08-18T04:12:59.568Z,63.33
2022-08-18T04:13:59.556Z,63.43
2022-08-18T04:14:59.559Z,63.63
2022-08-18T04:15:59.534Z,63.82
2022-08-18T04:16:59.526Z,63.92
2022-08-18T04:18:04.029Z,64.45
2022-08-18T04:18:59.507Z,64.36
2022-08-18T04:19:59.505Z,64.25
2022-08-18T04:21:00.133Z,64.78
2022-08-18T04:21:59.472Z,64.78
2022-08-18T04:22:59.460Z,65.28
2022-08-18T04:23:59.452Z,65.61
2022-08-18T04:24:59.450Z,65.91
2022-08-18T04:25:59.430Z,66.61
2022-08-18T04:26:59.423Z,66.01
2022-08-18T04:27:59.406Z,65.61
2022-08-18T04:28:59.395Z,65.61
2022-08-18T04:29:59.395Z,65.91
2022-08-18T04:30:59.377Z,65.81
2022-08-18T04:31:59.363Z,66.11
2022-08-18T04:32:59.359Z,66.20
2022-08-18T04:33:59.396Z,66.20
2022-08-18T04:34:59.345Z,66.20
2022-08-18T04:35:59.319Z,66.20
2022-08-18T04:36:59.312Z,66.50
2022-08-18T04:37:59.301Z,66.80
2022-08-18T04:38:59.291Z,66.77
2022-08-18T04:39:59.398Z,66.27
2022-08-18T04:40:59.270Z,65.88
2022-08-18T04:41:59.266Z,66.27
2022-08-18T04:42:59.249Z,66.71
2022-08-18T04:43:59.234Z,66.57
2022-08-18T04:44:59.233Z,66.67
2022-08-18T04:45:59.213Z,66.27
2022-08-18T04:46:59.204Z,66.27
2022-08-18T04:47:59.193Z,66.38
2022-08-18T04:48:59.444Z,66.17
2022-08-18T04:49:59.235Z,66.38
2022-08-18T04:50:59.165Z,66.38
2022-08-18T04:52:34.442Z,65.58
2022-08-18T04:53:00.140Z,65.18
2022-08-18T04:53:59.128Z,65.68
2022-08-18T04:54:59.138Z,65.78
2022-08-18T04:55:59.109Z,66.17
2022-08-18T04:56:59.103Z,66.17
2022-08-18T04:57:59.095Z,66.27
2022-08-18T04:58:59.078Z,65.98
2022-08-18T04:59:59.077Z,65.78
2022-08-18T05:00:59.104Z,65.78
2022-08-18T05:01:59.042Z,65.98
2022-08-18T05:02:59.032Z,65.88
2022-08-18T05:03:59.022Z,66.38
2022-08-18T05:04:59.020Z,65.98
2022-08-18T05:05:59.001Z,65.78
2022-08-18T05:06:58.990Z,65.75
2022-08-18T05:07:58.981Z,65.88
2022-08-18T05:08:58.971Z,65.45
2022-08-18T05:09:58.970Z,66.35
2022-08-18T05:11:03.675Z,65.45
2022-08-18T05:11:59.936Z,65.25
2022-08-18T05:12:58.929Z,65.75
2022-08-18T05:13:58.919Z,65.75
2022-08-18T05:14:58.915Z,65.15
2022-08-18T05:16:10.991Z,65.64
2022-08-18T05:16:59.884Z,66.47
2022-08-18T05:17:58.874Z,65.94
2022-08-18T05:18:58.864Z,66.14
2022-08-18T05:19:58.863Z,65.88
2022-08-18T05:20:59.246Z,66.17
2022-08-18T05:22:00.131Z,66.50
2022-08-18T05:22:58.826Z,66.71
2022-08-18T05:23:58.816Z,66.91
2022-08-18T05:24:58.814Z,66.61
2022-08-18T05:25:58.798Z,66.61
2022-08-18T05:26:58.787Z,66.61
2022-08-18T05:27:58.766Z,66.80
2022-08-18T05:29:17.857Z,66.71
2022-08-18T05:29:59.762Z,66.41
2022-08-18T05:31:00.614Z,65.61
2022-08-18T05:31:58.726Z,66.20
2022-08-18T05:32:58.755Z,66.01
2022-08-18T05:33:58.714Z,66.01
2022-08-18T05:34:58.705Z,66.20
2022-08-18T05:35:58.693Z,66.31
2022-08-18T05:36:58.672Z,66.47
2022-08-18T05:37:58.664Z,66.38
2022-08-18T05:38:58.654Z,65.51
2022-08-18T05:39:58.764Z,66.31
2022-08-18T05:40:58.631Z,66.61
2022-08-18T05:41:58.621Z,66.80
2022-08-18T05:42:58.612Z,65.88
2022-08-18T05:43:58.597Z,65.48
2022-08-18T05:44:58.620Z,65.78
2022-08-18T05:45:58.591Z,65.78
2022-08-18T05:46:58.571Z,65.35
2022-08-18T05:47:58.555Z,64.75
2022-08-18T05:48:58.559Z,64.32
2022-08-18T05:49:58.536Z,64.42
2022-08-18T05:50:58.524Z,64.32
2022-08-18T05:51:58.512Z,64.92
2022-08-18T05:52:58.499Z,64.69
2022-08-18T05:53:58.514Z,63.60
2022-08-18T05:54:58.482Z,63.40
2022-08-18T05:55:58.469Z,63.76
2022-08-18T05:56:58.468Z,63.17
2022-08-18T05:58:05.050Z,63.46
2022-08-18T05:58:58.474Z,63.07
2022-08-18T05:59:58.444Z,63.27
2022-08-18T06:00:59.779Z,62.24
2022-08-18T06:01:58.400Z,62.45
2022-08-18T06:02:58.495Z,62.15
2022-08-18T06:03:58.443Z,62.12
2022-08-18T06:04:58.382Z,62.61
2022-08-18T06:05:58.371Z,62.61
2022-08-18T06:06:58.344Z,62.51
2022-08-18T06:07:58.345Z,62.12
2022-08-18T06:08:58.342Z,61.59
2022-08-18T06:09:58.314Z,61.10
2022-08-18T06:10:58.306Z,61.79
2022-08-18T06:11:58.292Z,59.61
2022-08-18T06:12:58.320Z,60.10
2022-08-18T06:13:59.772Z,59.51
2022-08-18T06:14:58.257Z,59.97
2022-08-18T06:15:58.250Z,59.97
2022-08-18T06:16:58.235Z,59.38
2022-08-18T06:17:58.228Z,59.38
2022-08-18T06:18:58.226Z,59.65
2022-08-18T06:19:58.224Z,59.05
2022-08-18T06:20:58.191Z,58.56
2022-08-18T06:21:58.222Z,58.63
2022-08-18T06:22:58.171Z,57.64
2022-08-18T06:23:58.168Z,58.20
2022-08-18T06:24:58.149Z,57.51
2022-08-18T06:25:58.139Z,57.71
2022-08-18T06:26:58.196Z,57.48
2022-08-18T06:27:58.115Z,57.68
2022-08-18T06:28:58.113Z,57.78
2022-08-18T06:29:58.101Z,56.86
2022-08-18T06:30:58.101Z,56.96
2022-08-18T06:31:58.081Z,56.96
2022-08-18T06:33:12.570Z,57.06
2022-08-18T06:33:58.072Z,57.18
2022-08-18T06:34:58.037Z,56.67
2022-08-18T06:35:58.133Z,56.67
2022-08-18T06:36:58.022Z,56.37
2022-08-18T06:37:58.006Z,55.77
2022-08-18T06:38:58.006Z,56.04
2022-08-18T06:39:58.048Z,56.34
2022-08-18T06:40:57.972Z,54.76
2022-08-18T06:41:57.967Z,54.83
2022-08-18T06:42:59.671Z,55.26
2022-08-18T06:43:57.952Z,55.45
2022-08-18T06:44:57.929Z,55.15
2022-08-18T06:45:57.921Z,55.55
2022-08-18T06:46:57.909Z,55.05
2022-08-18T06:47:57.908Z,56.24
2022-08-18T06:48:57.906Z,55.35
2022-08-18T06:49:57.922Z,55.35
2022-08-18T06:50:57.865Z,55.33
2022-08-18T06:51:57.859Z,54.73
2022-08-18T06:52:57.845Z,54.93
2022-08-18T06:53:57.877Z,54.04
2022-08-18T06:54:57.821Z,54.41
2022-08-18T06:55:57.813Z,54.34
2022-08-18T06:56:57.801Z,54.31
2022-08-18T06:57:57.793Z,54.31
2022-08-18T06:58:57.791Z,54.21
2022-08-18T06:59:57.769Z,54.11
2022-08-18T07:00:57.794Z,53.72
2022-08-18T07:01:57.760Z,53.50
2022-08-18T07:02:57.736Z,53.79
2022-08-18T07:03:57.754Z,53.39
2022-08-18T07:04:57.713Z,53.39
2022-08-18T07:05:57.706Z,52.91
2022-08-18T07:06:57.690Z,53.10
2022-08-18T07:07:57.946Z,53.17
2022-08-18T07:08:57.681Z,52.87
2022-08-18T07:09:57.661Z,52.98
2022-08-18T07:10:57.650Z,52.68
2022-08-18T07:11:57.639Z,52.68
2022-08-18T07:12:57.628Z,53.17
2022-08-18T07:14:14.866Z,52.87
2022-08-18T07:14:58.609Z,52.39
2022-08-18T07:15:57.596Z,52.36
2022-08-18T07:16:59.252Z,52.16
2022-08-18T07:17:57.877Z,52.16
2022-08-18T07:18:57.573Z,52.26
2022-08-18T07:19:57.554Z,51.47
2022-08-18T07:20:57.543Z,52.36
2022-08-18T07:21:57.532Z,51.67
2022-08-18T07:22:57.524Z,52.16
2022-08-18T07:24:21.170Z,52.06
2022-08-18T07:25:01.736Z,51.89
2022-08-18T07:25:58.489Z,51.67
2022-08-18T07:26:57.482Z,52.28
2022-08-18T07:27:57.473Z,52.58
2022-08-18T07:28:57.492Z,52.19
2022-08-18T07:29:57.447Z,51.69
2022-08-18T07:31:15.912Z,51.37
2022-08-18T07:31:58.429Z,51.89
2022-08-18T07:32:57.414Z,51.77
2022-08-18T07:33:57.426Z,52.16
2022-08-18T07:34:57.396Z,52.16
2022-08-18T07:35:57.396Z,51.69
2022-08-18T07:36:57.371Z,51.99
2022-08-18T07:37:57.422Z,51.89
2022-08-18T07:38:57.362Z,51.99
2022-08-18T07:39:57.410Z,51.99
2022-08-18T07:40:57.337Z,52.26
2022-08-18T07:41:57.320Z,51.89
2022-08-18T07:43:01.255Z,52.06
2022-08-18T07:43:58.305Z,50.68
2022-08-18T07:44:57.286Z,50.98
2022-08-18T07:45:57.278Z,51.57
2022-08-18T07:46:57.263Z,51.07
2022-08-18T07:47:57.256Z,51.59
2022-08-18T07:48:57.252Z,51.59
2022-08-18T07:50:17.018Z,52.28
2022-08-18T07:51:01.449Z,51.99
2022-08-18T07:51:57.216Z,52.28
2022-08-18T07:52:57.253Z,52.09
2022-08-18T07:53:57.200Z,51.89
2022-08-18T07:54:57.182Z,51.89
2022-08-18T07:55:57.170Z,52.09
2022-08-18T07:56:57.156Z,51.99
2022-08-18T07:57:57.445Z,51.99
2022-08-18T07:58:57.155Z,51.99
2022-08-18T07:59:57.127Z,52.28
2022-08-18T08:01:00.037Z,51.69
2022-08-18T08:01:57.192Z,51.99
2022-08-18T08:02:57.144Z,52.39
2022-08-18T08:03:57.094Z,51.99
2022-08-18T08:04:57.074Z,52.39
2022-08-18T08:05:57.061Z,52.58
2022-08-18T08:07:22.749Z,52.28
2022-08-18T08:07:58.042Z,52.28
2022-08-18T08:08:57.043Z,52.46
2022-08-18T08:09:57.020Z,52.26
2022-08-18T08:10:57.006Z,52.36
2022-08-18T08:11:56.998Z,52.26
2022-08-18T08:13:08.374Z,52.36
2022-08-18T08:13:57.988Z,51.77
2022-08-18T08:14:56.967Z,51.87
2022-08-18T08:15:56.957Z,51.87
2022-08-18T08:16:56.945Z,51.97
2022-08-18T08:17:56.933Z,51.97
2022-08-18T08:18:56.937Z,51.77
2022-08-18T08:20:00.406Z,51.97
2022-08-18T08:20:56.904Z,51.87
2022-08-18T08:21:56.895Z,51.94
2022-08-18T08:22:56.881Z,51.64
2022-08-18T08:23:56.883Z,51.74
2022-08-18T08:24:56.857Z,52.43
2022-08-18T08:25:56.863Z,52.53
2022-08-18T08:26:56.837Z,52.04
2022-08-18T08:27:56.825Z,52.23
2022-08-18T08:28:56.822Z,52.23
2022-08-18T08:29:56.804Z,52.33
2022-08-18T08:31:09.048Z,52.01
2022-08-18T08:31:57.789Z,52.11
2022-08-18T08:32:56.771Z,52.70
2022-08-18T08:33:56.772Z,52.21
2022-08-18T08:34:56.752Z,52.40
2022-08-18T08:35:56.741Z,51.81
2022-08-18T08:36:56.731Z,51.81
2022-08-18T08:37:58.298Z,52.11
2022-08-18T08:38:56.719Z,51.72
2022-08-18T08:39:56.749Z,51.03
2022-08-18T08:40:56.695Z,51.32
2022-08-18T08:41:57.573Z,50.90
2022-08-18T08:42:57.665Z,50.90
2022-08-18T08:43:56.668Z,51.20
2022-08-18T08:45:00.235Z,51.59
2022-08-18T08:45:56.634Z,50.90
2022-08-18T08:46:56.643Z,50.42
2022-08-18T08:48:01.625Z,50.61
2022-08-18T08:48:57.618Z,50.09
2022-08-18T08:50:00.574Z,51.07
2022-08-18T08:50:56.579Z,50.68
2022-08-18T08:51:56.573Z,49.21
2022-08-18T08:52:57.339Z,49.28
2022-08-18T08:53:56.560Z,49.48
2022-08-18T08:54:56.538Z,49.58
2022-08-18T08:56:01.608Z,49.35
2022-08-18T08:56:57.515Z,49.06
2022-08-18T08:57:56.508Z,49.06
2022-08-18T08:58:56.507Z,49.06
2022-08-18T08:59:56.485Z,49.06
2022-08-18T09:00:56.477Z,49.53
2022-08-18T09:01:56.601Z,49.92
2022-08-18T09:02:56.453Z,50.12
2022-08-18T09:03:56.532Z,49.92
2022-08-18T09:05:09.401Z,49.63
2022-08-18T09:05:57.532Z,48.65
2022-08-18T09:06:56.409Z,49.13
2022-08-18T09:07:56.401Z,48.62
2022-08-18T09:08:56.402Z,48.82
2022-08-18T09:09:56.380Z,48.91
2022-08-18T09:10:56.366Z,47.91
2022-08-18T09:11:56.360Z,48.50
2022-08-18T09:12:56.352Z,48.50
2022-08-18T09:13:56.351Z,48.18
2022-08-18T09:14:56.325Z,47.79
2022-08-18T09:15:56.318Z,47.67
2022-08-18T09:16:56.304Z,46.78
2022-08-18T09:17:56.298Z,46.56
2022-08-18T09:18:56.296Z,46.15
2022-08-18T09:19:56.275Z,45.72
2022-08-18T09:20:56.267Z,45.69
2022-08-18T09:21:56.254Z,44.89
2022-08-18T09:22:56.243Z,44.09
2022-08-18T09:23:56.243Z,44.14
2022-08-18T09:24:56.222Z,44.12
2022-08-18T09:25:56.220Z,43.43
2022-08-18T09:26:56.201Z,42.54
2022-08-18T09:28:10.511Z,41.73
2022-08-18T09:28:57.191Z,42.20
2022-08-18T09:29:56.172Z,42.00
2022-08-18T09:30:56.164Z,41.20
2022-08-18T09:31:56.152Z,41.20
2022-08-18T09:32:56.143Z,41.11
2022-08-18T09:33:56.149Z,41.11
2022-08-18T09:34:56.123Z,40.99
2022-08-18T09:35:56.231Z,40.78
2022-08-18T09:36:56.479Z,40.70
2022-08-18T09:37:56.095Z,40.89
2022-08-18T09:38:56.097Z,41.01
2022-08-18T09:41:57.052Z,41.83
2022-08-18T09:42:56.043Z,41.93
2022-08-18T09:43:56.046Z,41.73
2022-08-18T09:44:56.023Z,42.05
2022-08-18T09:45:56.010Z,41.56
2022-08-18T09:46:56.045Z,42.75
2022-08-18T09:47:56.390Z,43.02
2022-08-18T09:48:55.984Z,42.85
2022-08-18T09:49:55.993Z,42.55
2022-08-18T09:50:55.966Z,43.14
2022-08-18T09:51:55.951Z,42.85
2022-08-18T09:52:56.232Z,42.94
2022-08-18T09:53:56.669Z,42.44
2022-08-18T09:54:55.920Z,41.66
2022-08-18T09:56:00.730Z,41.66
2022-08-18T09:56:56.900Z,41.38
2022-08-18T09:57:55.894Z,42.34
2022-08-18T09:58:55.893Z,41.75
2022-08-18T09:59:55.873Z,41.73
2022-08-18T10:00:55.862Z,41.93
2022-08-18T10:01:55.862Z,42.05
2022-08-18T10:02:56.160Z,42.24
2022-08-18T10:03:55.842Z,41.75
2022-08-18T10:04:55.820Z,41.52
2022-08-18T10:05:55.842Z,42.00
2022-08-18T10:06:55.805Z,42.00
2022-08-18T10:07:55.793Z,41.71
2022-08-18T10:08:55.791Z,41.83
2022-08-18T10:09:55.773Z,41.81
2022-08-18T10:11:01.756Z,41.30
2022-08-18T10:11:56.752Z,40.72
2022-08-18T10:12:55.740Z,40.70
2022-08-18T10:13:55.743Z,40.19
2022-08-18T10:14:55.721Z,40.11
2022-08-18T10:15:55.712Z,40.01
2022-08-18T10:17:21.715Z,40.42
2022-08-18T10:17:56.690Z,40.45
2022-08-18T10:18:55.695Z,41.44
2022-08-18T10:19:55.675Z,40.86
2022-08-18T10:20:55.662Z,41.07
2022-08-18T10:21:55.654Z,40.70
2022-08-18T10:22:55.666Z,41.77
2022-08-18T10:24:14.775Z,41.80
2022-08-18T10:24:56.620Z,41.82
2022-08-18T10:25:55.630Z,41.60
2022-08-18T10:26:55.611Z,40.99
2022-08-18T10:27:55.601Z,40.19
2022-08-18T10:28:55.583Z,40.48
2022-08-18T10:29:55.580Z,40.58
2022-08-18T10:31:57.434Z,41.58
2022-08-18T10:32:55.992Z,41.09
2022-08-18T10:33:55.537Z,40.99
2022-08-18T10:34:55.526Z,41.09
2022-08-18T10:35:55.510Z,41.31
2022-08-18T10:36:58.896Z,41.21
2022-08-18T10:37:55.506Z,40.84
2022-08-18T10:38:55.486Z,40.94
2022-08-18T10:39:55.529Z,40.53
2022-08-18T10:40:55.462Z,41.72
2022-08-18T10:41:55.452Z,41.64
2022-08-18T10:42:55.712Z,42.13
2022-08-18T10:43:58.153Z,42.13
2022-08-18T10:44:55.423Z,41.44
2022-08-18T10:46:24.445Z,42.13
2022-08-18T10:46:56.428Z,41.46
2022-08-18T10:47:56.380Z,43.03
2022-08-18T10:48:55.390Z,41.78
2022-08-18T10:49:55.396Z,42.66
2022-08-18T10:50:55.390Z,42.97
2022-08-18T10:51:59.745Z,42.68
2022-08-18T10:53:24.405Z,43.24
2022-08-18T10:53:56.338Z,42.46
2022-08-18T10:54:55.321Z,43.17
2022-08-18T10:55:55.349Z,42.88
2022-08-18T10:56:55.652Z,42.88
2022-08-18T10:57:55.291Z,42.48
2022-08-18T10:58:55.294Z,43.58
2022-08-18T10:59:55.370Z,42.88
2022-08-18T11:00:55.290Z,42.90
2022-08-18T11:01:55.256Z,42.41
2022-08-18T11:03:02.434Z,42.80
2022-08-18T11:03:56.393Z,42.90
2022-08-18T11:04:58.557Z,43.09
2022-08-18T11:05:55.208Z,42.50
2022-08-18T11:06:55.199Z,42.91
2022-08-18T11:07:56.652Z,42.80
2022-08-18T11:08:57.709Z,42.82
2022-08-18T11:10:27.950Z,43.31
2022-08-18T11:11:59.353Z,42.62
2022-08-18T11:12:56.761Z,42.72
2022-08-18T11:13:55.136Z,42.70
2022-08-18T11:14:55.117Z,42.60
2022-08-18T11:15:55.102Z,43.29
2022-08-18T11:16:55.103Z,43.31
2022-08-18T11:17:55.081Z,43.02
2022-08-18T11:18:55.091Z,43.70
2022-08-18T11:19:55.066Z,43.41
2022-08-18T11:20:55.053Z,43.60
2022-08-18T11:21:55.037Z,43.51
2022-08-18T11:22:55.394Z,43.70
2022-08-18T11:23:55.029Z,43.70
2022-08-18T11:24:55.010Z,42.62
2022-08-18T11:25:54.994Z,42.72
2022-08-18T11:26:54.987Z,42.62
2022-08-18T11:27:54.978Z,43.31
2022-08-18T11:28:54.974Z,43.60
2022-08-18T11:29:54.955Z,42.33
2022-08-18T11:30:54.949Z,42.99
2022-08-18T11:31:54.931Z,42.80
2022-08-18T11:32:55.304Z,42.50
2022-08-18T11:33:54.929Z,42.99
2022-08-18T11:34:54.917Z,42.60
2022-08-18T11:35:54.894Z,42.60
2022-08-18T11:36:54.883Z,42.02
2022-08-18T11:37:54.869Z,41.62
2022-08-18T11:38:54.874Z,42.31
2022-08-18T11:39:54.924Z,41.92
2022-08-18T11:41:11.835Z,41.82
2022-08-18T11:41:55.881Z,41.82
2022-08-18T11:42:54.834Z,42.11
2022-08-18T11:43:54.819Z,41.72
2022-08-18T11:44:54.799Z,41.89
2022-08-18T11:45:54.801Z,42.19
2022-08-18T11:46:54.779Z,41.41
2022-08-18T11:47:54.769Z,41.02
2022-08-18T11:48:54.766Z,41.41
2022-08-18T11:49:54.748Z,41.21
2022-08-18T11:50:54.938Z,41.89
2022-08-18T11:51:54.725Z,41.02
2022-08-18T11:52:55.001Z,40.60
2022-08-18T11:53:58.314Z,40.80
2022-08-18T11:54:54.693Z,40.62
2022-08-18T11:55:54.686Z,40.31
2022-08-18T11:56:54.674Z,40.50
2022-08-18T11:57:55.996Z,41.09
2022-08-18T11:58:54.664Z,40.60
2022-08-18T12:00:00.748Z,40.80
2022-08-18T12:00:57.188Z,40.41
2022-08-18T12:01:55.621Z,39.90
2022-08-18T12:02:54.902Z,39.02
2022-08-18T12:03:54.628Z,39.41
2022-08-18T12:04:54.588Z,38.32
2022-08-18T12:05:55.896Z,38.90
2022-08-18T12:06:54.634Z,38.61
2022-08-18T12:07:57.470Z,39.88
2022-08-18T12:10:17.741Z,39.78
2022-08-18T12:10:55.523Z,40.66
2022-08-18T12:11:54.511Z,40.56
2022-08-18T12:12:54.715Z,40.56
2022-08-18T12:13:54.491Z,40.86
2022-08-18T12:15:00.574Z,40.76
2022-08-18T12:15:55.473Z,40.56
2022-08-18T12:16:54.465Z,40.95
2022-08-18T12:17:54.464Z,41.15
2022-08-18T12:18:54.450Z,41.23
2022-08-18T12:19:54.432Z,40.86
2022-08-18T12:20:54.421Z,40.37
2022-08-18T12:21:54.521Z,40.76
2022-08-18T12:22:54.789Z,40.45
2022-08-18T12:23:54.386Z,40.76
2022-08-18T12:24:54.399Z,40.56
2022-08-18T12:25:54.463Z,40.56
2022-08-18T12:26:54.362Z,40.56
2022-08-18T12:27:54.381Z,40.37
2022-08-18T12:28:54.339Z,40.56
2022-08-18T12:29:55.356Z,40.88
2022-08-18T12:30:56.252Z,40.97
2022-08-18T12:31:54.348Z,41.17
2022-08-18T12:33:05.659Z,41.35
2022-08-18T12:34:00.184Z,41.07
2022-08-18T12:34:55.273Z,41.15
2022-08-18T12:35:54.262Z,40.66
2022-08-18T12:36:54.257Z,40.47
2022-08-18T12:38:11.191Z,40.95
2022-08-18T12:38:56.146Z,40.56
2022-08-18T12:39:54.278Z,40.47
2022-08-18T12:40:54.212Z,40.37
2022-08-18T12:41:54.210Z,40.56
2022-08-18T12:42:54.467Z,40.56
2022-08-18T12:43:58.470Z,40.56
2022-08-18T12:44:55.173Z,40.68
2022-08-18T12:45:54.169Z,40.00
2022-08-18T12:46:54.154Z,39.61
2022-08-18T12:47:54.159Z,39.51
2022-08-18T12:48:54.263Z,39.41
2022-08-18T12:49:54.123Z,39.98
2022-08-18T12:50:58.684Z,40.47
2022-08-18T12:51:55.610Z,40.56
2022-08-18T12:52:54.499Z,41.74
2022-08-18T12:53:58.597Z,41.15
2022-08-18T12:54:55.507Z,41.74
2022-08-18T12:55:54.058Z,41.25
2022-08-18T12:56:54.048Z,40.66